Impacts METAR Board
IDs:

KCFD - Bryan/Coulter Fld, TX, US

Updated at: 1500 UTC 03 Dec 2021
Potential Impact None Slight Moderate High
Time 03/03Z 03/04Z 03/05Z 03/06Z 03/07Z 03/08Z 03/09Z 03/10Z 03/11Z 03/12Z 03/13Z 03/14Z 03/15Z
Temp65 63 63 65 65 65 64 65 66 66 67 67 67
Dewpt65 63 63 65 65 65 64 65 66 66 67 67 67
Altim30.11 30.12 30.11 30.11 30.10 30.09 30.09 30.08 30.08 30.08 30.09 30.09 30.11
VIS10 10 10 10 10 10 1 1.75 7 7 5 4 7
CIG-- -- -- -- -- 4 2 2 2 4 4 4 4
CoverCLRCLRCLRCLRCLROVCOVCOVCOVCOVCOVCOVCOVC
FltCatVFRVFRVFRVFRVFRLIFRLIFRLIFRLIFRLIFRLIFRLIFRLIFR
WX------------BRBR----BRBR--
WDir00160180180180190190190180170190200
WSpd0 0 4 6 5 7 6 5 5 3 5 4 4
WGst-- -- -- -- -- -- -- -- -- -- -- -- --
Raw hourly METARs
KCFD 030255Z AUTO 00000KT 10SM CLR 18/18 A3011 RMK AO2 T01820182
KCFD 030355Z AUTO 00000KT 10SM CLR 17/17 A3012 RMK AO2 T01710171
KCFD 030455Z AUTO 16004KT 10SM CLR 17/17 A3011 RMK AO2 T01710171
KCFD 030555Z AUTO 18006KT 10SM CLR 18/18 A3011 RMK AO2 T01830183 10215 20158 402530106
KCFD 030655Z AUTO 18005KT 10SM CLR 18/18 A3010 RMK AO2 T01810181
KCFD 030755Z AUTO 18007KT 10SM OVC004 18/18 A3009 RMK AO2 T01820182
KCFD 030855Z AUTO 19006KT 1SM BR OVC002 18/18 A3009 RMK AO2 T01800180
KCFD 030955Z AUTO 19005KT 1 3/4SM BR OVC002 19/19 A3008 RMK AO2 T01850185
KCFD 031055Z AUTO 19005KT 7SM OVC002 19/19 A3008 RMK AO2 T01870187
KCFD 031155Z AUTO 18003KT 7SM OVC004 19/19 A3008 RMK AO2 T01900190 10190 20180
KCFD 031255Z AUTO 17005KT 5SM BR OVC004 19/19 A3009 RMK AO2 T01920192
KCFD 031355Z AUTO 19004KT 4SM BR OVC004 20/20 A3009 RMK AO2 T01950195
KCFD 031455Z AUTO 20004KT 7SM OVC004 20/20 A3011 RMK AO2 T01970197



Page loaded:  15:59 UTC  |   07:59 AM Pacific  |   08:59 AM Mountain  |   09:59 AM Central  |   10:59 AM Eastern

 

ADVISORIES

FORECASTS

FORECASTS

OBSERVATIONS

USER TOOLS

ABOUT US